Latest Weather Observations for Double Island Point

IDQ60801

Issued at 1:35 pm EST Friday 22 August 2014 (issued every 30 minutes, with the page automatically refreshed every 10 minutes)

About weather observations | Map of weather stations | Latest weather observations for QLD | Other Formats
Station Details ID: 040068 Name: DOUBLE ISLAND POINT LIGHTHOUSE Lat: -25.93 Lon: 153.19 Height: 95.64 m
Data from the previous 72 hours. | See also: Recent months at Double Island Point
Date/Time
EST
Temp
°C
App
Temp
°C
Dew
Point
Rel
Hum
%
Delta-T
°C
Wind Press
QNH
hPa
Press
MSL
hPa
Rain
since 9 am
mm
Dir
 
Spd
km/h
Gust
km/h
Spd
kts
Gust
kts
22/01:30pm 15.9 7.5 14.6 92 0.7 SE 52 61 28 33 1020.8 1020.6 1.2
22/01:00pm 16.7 7.4 14.7 88 1.2 SE 57 65 31 35 1020.9 1020.7 0.4
22/12:30pm 16.8 9.7 15.0 89 1.0 ESE 46 54 25 29 1021.6 1021.4 0.4
22/12:00pm 17.1 9.3 15.1 88 1.2 ESE 50 61 27 33 1022.0 1021.8 0.4
22/11:30am 16.8 8.6 15.2 90 0.9 ESE 52 61 28 33 1022.1 1021.9 0.4
22/11:00am 17.4 8.7 14.9 85 1.4 SE 54 61 29 33 1022.4 1022.2 0.0
22/10:30am 17.1 9.7 14.2 83 1.7 SE 46 57 25 31 1023.2 1023.1 0.0
22/10:00am 17.0 8.7 14.8 87 1.3 SE 52 67 28 36 1023.0 1022.9 0.0
22/09:30am 17.0 7.7 14.8 87 1.3 SE 57 63 31 34 1023.0 1022.9 0.0
22/09:00am 16.7 7.2 14.3 86 1.4 SE 57 69 31 37 1023.0 1022.9 9.6
22/08:30am 16.7 8.0 14.9 89 1.0 SE 54 63 29 34 1022.7 1022.6 9.6
22/08:00am 16.4 6.0 14.8 90 0.9 SE 63 70 34 38 1022.4 1022.2 9.6
22/07:30am 16.4 6.2 14.4 88 1.1 SE 61 70 33 38 1021.9 1021.7 9.6
22/07:00am 16.3 5.8 14.7 90 0.9 ESE 63 72 34 39 1021.4 1021.2 9.4
22/06:30am 16.1 4.5 14.6 91 0.9 ESE 69 80 37 43 1020.8 1020.6 9.4
22/06:00am 15.3 5.1 14.2 93 0.6 SSE 61 72 33 39 1020.8 1020.6 8.8
22/05:30am 15.4 4.4 14.1 92 0.7 SE 65 76 35 41 1020.3 1020.1 8.2
22/05:00am 15.7 4.8 14.6 93 0.6 SE 65 78 35 42 1020.3 1020.1 7.6
22/04:30am 15.5 6.2 14.2 92 0.7 SE 56 69 30 37 1020.2 1020.0 6.6
22/04:00am 15.7 5.9 14.4 92 0.7 SE 59 72 32 39 1020.4 1020.2 4.6
22/03:30am 16.2 5.6 14.2 88 1.1 SE 63 72 34 39 1020.0 1019.8 3.8
22/03:00am 16.7 5.1 13.6 82 1.7 SSE 67 76 36 41 1020.2 1020.0 3.8
22/02:30am 16.6 6.0 14.2 86 1.4 SSE 63 72 34 39 1020.3 1020.1 3.8
22/02:00am 16.5 5.6 14.5 88 1.1 SE 65 76 35 41 1020.4 1020.2 3.8
22/01:30am 16.4 7.0 14.4 88 1.1 SE 57 69 31 37 1020.9 1020.7 3.8
22/01:00am 16.5 6.9 15.0 91 0.9 SE 59 78 32 42 1020.8 1020.6 3.8
22/12:30am 15.8 6.5 14.7 93 0.6 SSE 57 72 31 39 1021.4 1021.2 2.8
22/12:00am 16.4 7.2 15.1 92 0.8 SE 57 67 31 36 1021.3 1021.1 2.4
 
Date/Time
EST
Temp
°C
App
Temp
°C
Dew
Point
Rel
Hum
%
Delta-T
°C
Wind Press
QNH
hPa
Press
MSL
hPa
Rain
since 9 am
mm
Dir
 
Spd
km/h
Gust
km/h
Spd
kts
Gust
kts
21/11:30pm 16.8 7.9 15.2 90 0.9 SE 56 67 30 36 1021.4 1021.2 2.2
21/11:00pm 17.2 10.0 14.8 86 1.4 SSE 46 54 25 29 1021.4 1021.2 2.2
21/10:30pm 17.3 10.9 14.4 83 1.7 SSE 41 48 22 26 1021.5 1021.3 2.2
21/10:00pm 17.2 10.6 14.8 86 1.4 SSE 43 50 23 27 1021.5 1021.3 2.2
21/09:30pm 17.2 11.1 15.2 88 1.2 SSE 41 46 22 25 1021.4 1021.2 2.2
21/09:00pm 17.2 11.0 15.0 87 1.3 SSE 41 48 22 26 1021.6 1021.4 2.2
21/08:30pm 16.9 9.3 14.7 87 1.3 SSE 48 59 26 32 1021.0 1020.8 2.2
21/08:00pm 16.1 9.3 14.3 89 1.0 SSE 43 50 23 27 1020.8 1020.6 2.2
21/07:30pm 16.4 9.6 14.2 87 1.3 SE 43 50 23 27 1020.9 1020.7 2.2
21/07:00pm 17.0 9.1 15.0 88 1.2 SSE 50 65 27 35 1020.5 1020.3 2.2
21/06:30pm 16.8 7.6 15.0 89 1.0 SSE 57 70 31 38 1020.4 1020.2 2.2
21/06:00pm 16.6 7.4 15.1 91 0.9 SSE 57 67 31 36 1019.9 1019.7 2.2
21/05:32pm 15.8 8.7 14.0 89 1.0 SE 44 67 24 36 1019.9 1019.7 0.4
21/05:30pm 15.8 8.8 13.6 87 1.2 SE 43 57 23 31 1020.0 1019.8 0.2
21/05:00pm 15.8 7.3 13.3 85 1.4 SE 50 69 27 37 1019.9 1019.7 0.0
21/04:54pm 16.8 8.6 14.1 84 1.5 SE 50 69 27 37 1019.8 1019.6 0.0
21/04:30pm 18.0 7.7 14.1 78 2.2 SSE 61 72 33 39 1019.1 1018.9 0.0
21/04:00pm 18.2 8.2 13.9 76 2.5 SSE 59 76 32 41 1018.7 1018.5 0.0
21/03:58pm 18.1 8.5 13.8 76 2.5 SSE 57 76 31 41 1018.6 1018.4 0.0
21/03:30pm 18.3 8.4 14.0 76 2.5 SSE 59 72 32 39 1018.5 1018.3 0.0
21/03:00pm 18.2 8.4 13.3 73 2.8 SSE 57 72 31 39 1018.7 1018.5 0.0
21/02:30pm 18.4 8.4 13.7 74 2.7 SSE 59 72 32 39 1018.8 1018.6 0.0
21/02:00pm 18.4 8.7 13.7 74 2.7 SSE 57 67 31 36 1018.8 1018.6 0.0
21/01:30pm 18.6 8.6 13.7 73 2.8 SSE 59 72 32 39 1019.0 1018.8 0.0
21/01:00pm 18.3 8.1 13.2 72 2.9 SSE 59 72 32 39 1019.3 1019.1 0.0
21/12:30pm 18.3 8.9 14.0 76 2.5 SSE 56 69 30 37 1019.7 1019.5 0.0
21/12:00pm 17.6 7.7 13.1 75 2.5 SSE 57 72 31 39 1020.2 1020.0 0.0
21/11:30am 17.7 8.6 13.6 77 2.3 SSE 54 65 29 35 1020.5 1020.3 0.0
21/11:00am 17.5 7.9 13.4 77 2.3 SSE 56 67 30 36 1020.8 1020.6 0.0
21/10:52am 17.6 8.4 13.3 76 2.4 SSE 54 72 29 39 1020.8 1020.6 0.0
21/10:30am 17.4 8.2 13.5 78 2.2 SSE 54 65 29 35 1021.1 1020.9 0.0
21/10:00am 17.2 7.9 12.9 76 2.4 S 54 69 29 37 1021.0 1020.8 0.0
21/09:30am 16.7 6.9 12.8 78 2.2 SSE 56 67 30 36 1021.2 1021.0 0.0
21/09:00am 16.7 7.4 13.0 79 2.1 SSE 54 65 29 35 1021.2 1021.0 0.0
21/08:30am 16.7 7.3 12.8 78 2.2 S 54 67 29 36 1020.8 1020.6 0.0
21/08:00am 16.5 7.9 13.0 80 2.0 SSE 50 63 27 34 1020.7 1020.5 0.0
21/07:30am 16.6 8.1 13.3 81 1.9 S 50 65 27 35 1020.4 1020.2 0.0
21/07:00am 16.6 7.4 13.5 82 1.7 S 54 65 29 35 1020.1 1019.9 0.0
21/06:30am 16.5 7.3 13.4 82 1.7 S 54 65 29 35 1019.9 1019.7 0.0
21/06:00am 16.6 7.3 13.1 80 2.0 S 54 69 29 37 1019.6 1019.4 0.0
21/05:30am 17.0 8.3 13.7 81 1.9 SSE 52 67 28 36 1019.4 1019.2 0.0
21/05:00am 16.8 7.6 13.5 81 1.9 S 54 67 29 36 1019.1 1018.9 0.0
21/04:30am 17.2 8.0 13.5 79 2.1 SSE 54 65 29 35 1018.8 1018.6 0.0
21/04:00am 17.2 8.4 13.5 79 2.1 SSE 52 63 28 34 1018.8 1018.6 0.0
21/03:30am 17.0 8.7 13.9 82 1.8 SSE 50 61 27 33 1018.8 1018.6 0.0
21/03:00am 17.1 8.9 14.0 82 1.8 SSE 50 61 27 33 1019.1 1018.9 0.0
21/02:30am 17.3 8.9 13.4 78 2.2 SSE 50 59 27 32 1019.4 1019.2 0.0
21/02:00am 18.0 9.1 13.1 73 2.8 SSE 52 61 28 33 1019.4 1019.2 0.0
21/01:30am 18.1 9.2 13.2 73 2.8 SSE 52 63 28 34 1019.4 1019.2 0.0
21/01:00am 18.2 10.1 13.3 73 2.8 SSE 48 57 26 31 1019.8 1019.6 0.0
21/12:30am 18.3 9.7 13.0 71 3.0 SSE 50 59 27 32 1019.8 1019.6 0.0
21/12:00am 18.4 9.8 13.0 71 3.0 SSE 50 59 27 32 1019.8 1019.6 0.0
 
Date/Time
EST
Temp
°C
App
Temp
°C
Dew
Point
Rel
Hum
%
Delta-T
°C
Wind Press
QNH
hPa
Press
MSL
hPa
Rain
since 9 am
mm
Dir
 
Spd
km/h
Gust
km/h
Spd
kts
Gust
kts
20/11:30pm 18.5 10.4 13.1 71 3.1 SE 48 54 26 29 1020.0 1019.8 0.0
20/11:00pm 18.4 10.7 13.3 72 2.9 SE 46 54 25 29 1020.4 1020.2 0.0
20/10:30pm 18.4 10.5 12.8 70 3.2 SE 46 52 25 28 1020.6 1020.4 0.0
20/10:00pm 18.5 10.5 12.5 68 3.3 SE 46 54 25 29 1020.8 1020.6 0.0
20/09:30pm 18.5 10.5 12.3 67 3.5 SE 46 52 25 28 1020.8 1020.6 0.0
20/09:00pm 18.5 10.6 12.7 69 3.2 SE 46 54 25 29 1020.8 1020.6 0.0
20/08:30pm 18.5 10.6 12.7 69 3.3 SE 46 50 25 27 1020.8 1020.6 0.0
20/08:00pm 18.5 11.2 13.4 72 2.9 SE 44 50 24 27 1020.8 1020.6 0.0
20/07:30pm 18.3 11.1 13.0 71 3.0 SE 43 48 23 26 1020.5 1020.3 0.0
20/07:00pm 18.3 11.1 13.2 72 2.9 SE 43 48 23 26 1020.3 1020.1 0.0
20/06:30pm 18.2 11.5 13.5 74 2.7 SE 41 46 22 25 1020.1 1019.9 0.0
20/06:00pm 18.0 10.7 12.7 71 3.0 SE 43 46 23 25 1019.4 1019.2 0.0
20/05:30pm 18.0 10.7 12.9 72 2.9 SE 43 52 23 28 1019.0 1018.8 0.0
20/05:00pm 18.0 10.4 12.5 70 3.1 SSE 44 52 24 28 1018.5 1018.3 0.0
20/04:30pm 17.9 10.3 11.9 68 3.3 SSE 43 48 23 26 1018.2 1018.0 0.0
20/04:00pm 18.0 11.2 11.8 67 3.4 SSE 39 48 21 26 1018.0 1017.8 0.0
20/03:30pm 18.1 11.3 11.9 67 3.4 SSE 39 46 21 25 1017.8 1017.6 0.0
20/03:00pm 18.2 12.0 11.5 65 3.7 SSE 35 43 19 23 1017.8 1017.6 0.0
20/02:30pm 18.0 12.1 11.3 65 3.7 SSE 33 43 18 23 1017.9 1017.7 0.0
20/02:00pm 18.5 12.9 12.0 66 3.6 SSE 33 41 18 22 1017.9 1017.7 0.0
20/01:30pm 18.4 12.8 11.5 64 3.8 SSE 32 44 17 24 1018.1 1017.9 0.0
20/01:00pm 18.5 12.8 11.3 63 3.9 SSE 32 41 17 22 1018.3 1018.1 0.0
20/12:30pm 18.6 12.8 11.4 63 4.0 SSE 33 43 18 23 1018.6 1018.4 0.0
20/12:00pm 18.4 12.1 11.0 62 4.0 SSE 35 44 19 24 1018.8 1018.6 0.0
20/11:30am 18.2 11.4 10.6 61 4.1 SSE 37 46 20 25 1018.8 1018.6 0.0
20/11:00am 18.2 11.1 10.8 62 4.0 SSE 39 52 21 28 1018.9 1018.7 0.0
20/10:30am 18.2 11.1 11.0 63 3.9 SSE 39 46 21 25 1018.9 1018.7 0.0
20/10:00am 18.2 11.1 11.0 63 3.9 SSE 39 48 21 26 1019.3 1019.1 0.0
20/09:30am 17.8 9.8 10.4 62 4.0 SSE 43 50 23 27 1019.1 1018.9 0.0
20/09:00am 17.6 9.5 10.2 62 3.9 SSE 43 52 23 28 1019.1 1018.9 0.0
20/08:30am 17.6 9.5 10.0 61 4.0 SSE 43 54 23 29 1018.9 1018.7 0.0
20/08:00am 16.7 9.6 11.0 69 3.1 S 39 46 21 25 1018.7 1018.5 0.0
20/07:30am 16.4 9.6 10.5 68 3.1 S 37 46 20 25 1018.4 1018.2 0.0
20/07:00am 16.2 9.5 9.8 66 3.4 S 35 44 19 24 1018.2 1018.0 0.0
20/06:30am 15.9 9.2 9.8 67 3.2 S 35 41 19 22 1018.0 1017.8 0.0
20/06:00am 15.9 9.2 9.8 67 3.2 S 35 44 19 24 1017.5 1017.3 0.0
20/05:30am 15.8 9.7 9.9 68 3.1 S 32 39 17 21 1017.1 1016.9 0.0
20/05:00am 15.3 9.4 9.0 66 3.2 S 30 33 16 18 1016.7 1016.5 0.0
20/04:30am 14.9 9.1 7.9 63 3.5 S 28 30 15 16 1016.6 1016.4 0.0
20/04:00am 14.8 9.6 7.1 60 3.8 S 24 28 13 15 1016.5 1016.3 0.0
20/03:30am 14.9 10.1 7.2 60 3.8 S 22 26 12 14 1016.4 1016.2 0.0
20/03:00am 15.1 9.9 7.4 60 3.8 S 24 30 13 16 1016.4 1016.2 0.0
20/02:30am 15.2 9.8 6.5 56 4.2 SSW 24 28 13 15 1016.3 1016.1 0.0
20/02:00am 15.4 10.1 6.7 56 4.3 SSW 24 30 13 16 1016.4 1016.2 0.0
20/01:30am 15.1 10.2 6.7 57 4.1 SW 22 32 12 17 1016.5 1016.3 0.0
20/01:00am 15.5 10.1 6.5 55 4.4 SW 24 30 13 16 1016.4 1016.2 0.0
20/12:30am 15.8 11.8 6.8 55 4.4 W 17 20 9 11 1016.6 1016.4 0.0
20/12:00am 16.1 12.4 6.5 53 4.7 W 15 20 8 11 1016.7 1016.5 0.0
 
Date/Time
EST
Temp
°C
App
Temp
°C
Dew
Point
Rel
Hum
%
Delta-T
°C
Wind Press
QNH
hPa
Press
MSL
hPa
Rain
since 9 am
mm
Dir
 
Spd
km/h
Gust
km/h
Spd
kts
Gust
kts
19/11:30pm 16.3 12.2 6.4 52 4.9 WSW 17 20 9 11 1016.5 1016.3 0.0
19/11:00pm 16.6 11.1 6.1 50 5.1 W 24 28 13 15 1016.2 1016.0 0.0
19/10:30pm 17.0 11.5 5.9 48 5.4 SW 24 33 13 18 1016.6 1016.4 0.0
19/10:00pm 17.6 10.5 5.5 45 5.9 SSW 32 44 17 24 1016.4 1016.2 0.0
19/09:30pm 17.6 12.0 5.2 44 6.0 SSW 24 30 13 16 1016.5 1016.3 0.0
19/09:00pm 17.7 11.9 4.6 42 6.3 SW 24 32 13 17 1016.4 1016.2 0.0
19/08:30pm 18.0 11.9 4.6 41 6.4 SW 26 30 14 16 1016.2 1016.0 0.0
19/08:00pm 18.1 13.4 5.0 42 6.3 WSW 19 26 10 14 1016.0 1015.8 0.0
19/07:30pm 18.8 13.1 4.9 40 6.7 WSW 24 30 13 16 1015.6 1015.4 0.0
19/07:00pm 18.6 13.7 5.1 41 6.6 SW 20 24 11 13 1015.2 1015.0 0.0
19/06:30pm 19.0 12.5 4.7 39 6.9 SSW 28 35 15 19 1014.6 1014.4 0.0
19/06:00pm 19.0 13.3 5.1 40 6.8 SSW 24 28 13 15 1014.2 1014.0 0.0
19/05:30pm 19.5 13.9 5.6 40 6.9 SSW 24 30 13 16 1013.7 1013.5 0.0
19/05:00pm 19.7 15.2 7.1 44 6.4 S 20 24 11 13 1013.1 1012.9 0.0
19/04:30pm 21.5 17.9 6.6 38 7.6 SW 15 22 8 12 1012.7 1012.5 0.0
19/04:00pm 21.5 16.9 5.8 36 7.9 SW 19 26 10 14 1012.4 1012.2 0.0
19/03:30pm 20.7 17.7 7.7 43 6.7 S 13 19 7 10 1012.2 1012.0 0.0
19/03:00pm 22.1 17.5 6.3 36 8.1 WNW 20 32 11 17 1011.8 1011.6 0.0
19/02:30pm 21.8 17.4 6.5 37 7.8 WNW 19 28 10 15 1012.1 1011.9 0.0
19/02:00pm 21.3 16.4 6.8 39 7.4 WNW 22 32 12 17 1012.2 1012.0 0.0

Other Formats:

Comma delimited format used in spreadsheet applications
http://www.bom.gov.au/fwo/IDQ60801/IDQ60801.94584.axf

JavaScript Object Notation format (JSON) in row-major order
http://www.bom.gov.au/fwo/IDQ60801/IDQ60801.94584.json